Time;durP1;ratioP1;P1;durP2;ratioP2;P2;SDS_P1;SDS_P2;PMS_P1;PMS_P2;Temp;Humidity;BMP_temperature;BMP_pressure;BME280_temperature;BME280_humidity;BME280_pressure;Samples;Min_cycle;Max_cycle;Signal;HPM_P1;HPM_P2
2022/06/08 00:02:28;;;;;;;5.53;1.83;;;;;;;18.99;63.04;101093.63;4985691;28;20049;-63
2022/06/08 00:04:54;;;;;;;7.25;2.00;;;;;;;18.95;63.32;101089.31;4975307;28;20159;-62
2022/06/08 00:07:19;;;;;;;5.15;1.90;;;;;;;18.92;63.47;101090.22;4981768;28;20046;-63
2022/06/08 00:09:45;;;;;;;5.60;1.70;;;;;;;18.99;62.94;101089.22;4969850;28;20488;-63
2022/06/08 00:12:11;;;;;;;5.03;2.28;;;;;;;19.03;63.26;101082.09;4983053;28;20049;-64
2022/06/08 00:14:37;;;;;;;8.23;2.30;;;;;;;18.95;63.72;101076.09;4981858;28;20060;-63
2022/06/08 00:17:03;;;;;;;6.55;2.33;;;;;;;19.01;63.28;101071.56;4976648;28;20595;-63
2022/06/08 00:19:29;;;;;;;7.38;2.45;;;;;;;18.95;63.80;101071.69;4984133;28;20050;-63
2022/06/08 00:21:54;;;;;;;7.70;3.03;;;;;;;18.85;64.46;101071.84;4975128;28;20099;-64
2022/06/08 00:24:19;;;;;;;8.23;3.00;;;;;;;18.87;64.40;101068.31;4975972;28;20390;-62
2022/06/08 00:26:46;;;;;;;6.82;2.83;;;;;;;18.82;64.84;101064.88;4986492;28;20448;-62
2022/06/08 00:29:11;;;;;;;8.77;3.50;;;;;;;18.77;64.99;101057.94;4972536;28;20359;-63
2022/06/08 00:31:39;;;;;;;10.50;4.18;;;;;;;18.61;65.83;101065.22;4982746;28;20037;-64
2022/06/08 00:34:04;;;;;;;11.02;4.05;;;;;;;18.75;65.40;101060.59;4973931;28;20119;-63
2022/06/08 00:36:30;;;;;;;11.77;4.10;;;;;;;18.74;65.54;101053.56;4980116;28;20042;-62
2022/06/08 00:38:55;;;;;;;8.60;4.70;;;;;;;18.72;66.08;101050.09;4982764;28;20034;-64
2022/06/08 00:41:39;;;;;;;10.75;5.47;;;;;;;18.68;66.38;101039.59;4978458;28;20060;-61
2022/06/08 00:44:15;;;;;;;14.25;5.65;;;;;;;18.60;66.69;101043.22;4973360;28;20637;-63
2022/06/08 00:46:40;;;;;;;14.85;6.05;;;;;;;18.60;67.00;101040.56;4975104;28;20116;-63
2022/06/08 00:49:19;;;;;;;11.27;6.38;;;;;;;18.58;66.74;101037.13;4979380;28;20875;-63
2022/06/08 00:51:44;;;;;;;13.05;6.07;;;;;;;18.59;66.66;101025.66;4988863;28;20627;-65
2022/06/08 00:54:16;;;;;;;19.30;6.95;;;;;;;18.52;66.81;101023.97;4973038;28;20053;-63
2022/06/08 00:56:47;;;;;;;12.88;7.10;;;;;;;18.53;66.74;101025.72;4980087;28;20476;-64
2022/06/08 00:59:13;;;;;;;15.30;8.10;;;;;;;18.53;67.15;101016.94;4984855;28;20115;-64
2022/06/08 01:01:39;;;;;;;18.70;8.55;;;;;;;18.42;67.79;101011.81;4973806;28;20042;-63
2022/06/08 01:04:17;;;;;;;18.15;8.00;;;;;;;18.54;67.65;101010.75;4979279;28;20098;-62
2022/06/08 01:06:47;;;;;;;15.18;8.82;;;;;;;18.52;67.74;101008.13;4981828;28;20489;-63
2022/06/08 01:09:21;;;;;;;17.02;9.07;;;;;;;18.54;67.89;101013.41;4979363;28;20033;-64
2022/06/08 01:11:47;;;;;;;16.25;8.85;;;;;;;18.47;67.89;101010.00;4968728;28;20065;-63
2022/06/08 01:14:16;;;;;;;16.00;8.93;;;;;;;18.57;67.63;101005.44;4979070;28;20496;-64
2022/06/08 01:16:50;;;;;;;16.50;9.48;;;;;;;18.63;67.42;101003.56;4976171;28;20411;-63
2022/06/08 01:19:16;;;;;;;15.82;9.27;;;;;;;18.65;67.30;101008.84;4972029;28;20041;-63
2022/06/08 01:21:41;;;;;;;16.42;8.63;;;;;;;18.76;67.08;100996.31;4967384;28;20079;-64
2022/06/08 01:24:10;;;;;;;17.52;9.25;;;;;;;18.74;66.91;100992.81;4981904;28;20048;-64
2022/06/08 01:26:39;;;;;;;15.18;9.48;;;;;;;18.54;67.31;100995.75;4976877;28;20045;-64
2022/06/08 01:29:31;;;;;;;18.30;9.27;;;;;;;18.54;67.31;100994.91;4975820;28;20054;-63
2022/06/08 01:32:21;;;;;;;15.95;8.90;;;;;;;18.59;66.60;100982.53;4969742;28;20815;-64
2022/06/08 01:35:00;;;;;;;20.42;9.20;;;;;;;18.50;67.33;100978.25;4976676;28;20132;-63
2022/06/08 01:37:44;;;;;;;17.58;9.90;;;;;;;18.33;67.55;100979.44;4994314;28;20056;-63
2022/06/08 01:40:40;;;;;;;14.95;9.65;;;;;;;18.25;67.81;100971.63;4980741;28;20564;-63
2022/06/08 01:43:38;;;;;;;15.68;8.77;;;;;;;18.20;67.78;100974.34;4979955;28;20045;-63
2022/06/08 01:46:19;;;;;;;15.90;9.27;;;;;;;18.13;67.53;100971.84;4968598;28;20571;-63
2022/06/08 01:49:05;;;;;;;16.00;9.23;;;;;;;17.99;68.49;100966.75;4984194;28;20053;-62
2022/06/08 01:51:55;;;;;;;15.82;9.15;;;;;;;17.94;68.38;100959.81;4984997;28;20048;-64
2022/06/08 01:54:26;;;;;;;14.88;8.95;;;;;;;17.95;68.17;100951.91;4980982;28;20053;-63
2022/06/08 01:56:58;;;;;;;15.98;8.80;;;;;;;17.90;68.40;100950.22;4979244;28;20060;-63
2022/06/08 01:59:28;;;;;;;15.25;8.57;;;;;;;17.87;68.26;100950.28;4985342;28;20180;-63
2022/06/08 02:02:09;;;;;;;15.38;8.68;;;;;;;17.79;68.84;100942.47;4971743;28;20491;-62
2022/06/08 02:04:52;;;;;;;15.45;8.52;;;;;;;17.78;68.74;100941.59;4976552;28;20095;-62
2022/06/08 02:07:33;;;;;;;15.27;8.80;;;;;;;17.58;69.87;100934.84;4971833;28;20770;-63
2022/06/08 02:10:22;;;;;;;15.30;8.43;;;;;;;17.59;69.49;100937.47;4975045;28;20559;-64
2022/06/08 02:12:55;;;;;;;16.48;8.57;;;;;;;17.60;69.57;100926.06;4976750;28;20050;-63
2022/06/08 02:15:27;;;;;;;14.52;8.00;;;;;;;17.65;69.39;100934.78;4985626;28;20251;-64
2022/06/08 02:17:56;;;;;;;13.13;7.57;;;;;;;17.67;69.47;100925.09;4987299;28;20401;-63
2022/06/08 02:20:38;;;;;;;13.50;8.05;;;;;;;17.65;69.29;100921.59;4981549;28;20049;-63
2022/06/08 02:23:13;;;;;;;15.15;7.70;;;;;;;17.62;69.25;100918.13;4981705;28;20501;-63
2022/06/08 02:25:54;;;;;;;12.45;7.15;;;;;;;17.58;69.20;100911.97;4992175;28;20045;-63
2022/06/08 02:28:27;;;;;;;17.10;8.40;;;;;;;17.50;69.75;100918.28;4983606;28;20430;-63
2022/06/08 02:30:57;;;;;;;12.90;7.72;;;;;;;17.51;69.84;100912.97;4984395;28;20048;-62
2022/06/08 02:36:18;;;;;;;14.88;8.13;;;;;;;17.43;70.48;100906.94;4983108;28;20176;-62
2022/06/08 02:38:55;;;;;;;12.00;7.32;;;;;;;17.35;70.32;100899.16;4979644;28;20317;-63
2022/06/08 02:41:24;;;;;;;11.73;7.00;;;;;;;17.58;69.48;100898.81;4987197;28;20200;-63
2022/06/08 02:43:53;;;;;;;13.57;7.28;;;;;;;17.43;69.86;100891.13;4970975;28;20130;-63
2022/06/08 02:46:39;;;;;;;10.95;6.60;;;;;;;17.50;69.92;100897.19;4973953;28;20061;-62
2022/06/08 02:49:07;;;;;;;9.88;6.50;;;;;;;17.51;69.51;100893.63;4984475;28;20057;-63
2022/06/08 02:51:33;;;;;;;9.55;6.05;;;;;;;17.52;69.63;100895.38;4977063;28;20037;-64
2022/06/08 02:54:04;;;;;;;11.82;5.90;;;;;;;17.67;69.03;100888.16;4975208;28;20381;-63
2022/06/08 02:56:45;;;;;;;9.43;5.70;;;;;;;17.63;68.98;100883.81;4980253;28;20325;-64
2022/06/08 02:59:20;;;;;;;11.38;6.18;;;;;;;17.53;69.36;100895.38;4983269;28;20049;-62
2022/06/08 03:01:57;;;;;;;13.88;5.70;;;;;;;17.56;69.06;100895.34;4971439;28;20568;-63
2022/06/08 03:04:49;;;;;;;7.80;5.28;;;;;;;17.69;68.49;100883.72;4981658;28;20581;-63
2022/06/08 03:07:20;;;;;;;8.93;4.72;;;;;;;17.76;68.56;100885.38;4973605;28;20046;-63
2022/06/08 03:09:49;;;;;;;9.25;5.15;;;;;;;17.70;68.64;100882.84;4973197;28;20056;-64
2022/06/08 03:12:20;;;;;;;8.25;4.95;;;;;;;17.76;68.12;100877.47;4983832;28;20041;-63
2022/06/08 03:14:47;;;;;;;7.68;4.60;;;;;;;17.82;67.82;100881.75;4985562;28;20659;-63
2022/06/08 03:17:16;;;;;;;7.13;3.97;;;;;;;18.02;67.28;100878.81;4984063;28;20107;-63
2022/06/08 03:19:42;;;;;;;6.93;4.03;;;;;;;18.10;67.10;100872.50;4992421;28;20314;-63
2022/06/08 03:22:07;;;;;;;6.43;4.10;;;;;;;18.06;67.02;100873.44;4975502;28;20053;-63
2022/06/08 03:24:33;;;;;;;6.72;4.18;;;;;;;18.06;66.76;100878.72;4978913;28;20128;-63
2022/06/08 03:27:03;;;;;;;5.78;3.78;;;;;;;18.16;66.66;100875.03;4971357;28;20080;-63
2022/06/08 03:29:31;;;;;;;7.32;3.70;;;;;;;17.83;67.20;100867.69;4981901;28;20507;-63
2022/06/08 03:31:56;;;;;;;7.40;3.92;;;;;;;17.95;66.99;100870.13;4975761;28;20046;-63
2022/06/08 03:34:22;;;;;;;7.05;4.07;;;;;;;17.94;67.17;100868.38;4977893;28;20557;-63
2022/06/08 03:36:47;;;;;;;6.90;3.95;;;;;;;18.15;66.58;100870.66;4981409;28;20114;-63
2022/06/08 03:39:13;;;;;;;6.63;3.83;;;;;;;18.15;66.28;100872.44;4977215;28;20080;-64
2022/06/08 03:41:44;;;;;;;6.95;3.65;;;;;;;18.21;66.15;100867.03;4977126;28;20044;-63
2022/06/08 03:44:10;;;;;;;5.47;3.50;;;;;;;18.23;65.81;100868.75;4974308;28;20646;-63
2022/06/08 03:46:40;;;;;;;5.43;3.55;;;;;;;18.21;65.83;100869.69;4975717;28;20049;-62
2022/06/08 03:49:07;;;;;;;5.30;3.60;;;;;;;18.28;65.79;100870.44;4979393;28;20100;-63
2022/06/08 03:51:34;;;;;;;5.40;3.30;;;;;;;18.31;65.22;100865.09;4985519;28;20056;-63
2022/06/08 03:54:09;;;;;;;6.32;3.42;;;;;;;18.35;65.40;100864.16;4980835;28;20063;-63
2022/06/08 03:56:37;;;;;;;5.57;3.17;;;;;;;18.29;65.49;100854.59;4985233;28;20053;-64
2022/06/08 03:59:03;;;;;;;8.85;3.58;;;;;;;18.36;65.18;100861.47;4982373;28;20523;-63
2022/06/08 04:01:30;;;;;;;5.40;2.97;;;;;;;18.43;65.13;100860.44;4975831;28;20064;-62
2022/06/08 04:03:57;;;;;;;6.18;3.10;;;;;;;18.46;64.74;100856.91;4970408;28;20387;-62
2022/06/08 04:06:23;;;;;;;6.78;3.05;;;;;;;18.50;64.54;100856.81;4980095;28;20060;-63
2022/06/08 04:08:48;;;;;;;7.35;3.10;;;;;;;18.50;64.69;100855.94;4978789;28;20060;-63
2022/06/08 04:11:14;;;;;;;4.90;2.88;;;;;;;18.63;64.64;100850.41;4977933;28;20316;-63
2022/06/08 04:13:40;;;;;;;7.15;3.28;;;;;;;18.64;64.34;100846.00;4982221;28;20395;-63
2022/06/08 04:16:06;;;;;;;4.53;2.63;;;;;;;18.73;64.08;100855.50;4975661;28;20041;-63
2022/06/08 04:18:32;;;;;;;5.63;2.90;;;;;;;18.77;64.06;100850.16;4981610;28;20037;-63
2022/06/08 04:21:01;;;;;;;6.40;2.70;;;;;;;18.79;63.98;100847.44;4980382;28;20068;-63
2022/06/08 04:23:30;;;;;;;5.97;2.92;;;;;;;18.75;63.65;100859.88;4981068;28;20053;-63
2022/06/08 04:25:56;;;;;;;4.32;2.75;;;;;;;18.79;63.98;100848.31;4969257;28;20041;-63
2022/06/08 04:28:22;;;;;;;6.07;3.00;;;;;;;18.76;64.07;100855.44;4982566;28;20050;-63
2022/06/08 04:30:48;;;;;;;7.35;2.75;;;;;;;18.87;63.85;100832.31;4987354;28;20034;-63
2022/06/08 04:33:15;;;;;;;5.75;3.17;;;;;;;18.72;63.72;100836.16;4987200;28;20049;-64
2022/06/08 04:35:44;;;;;;;4.80;2.53;;;;;;;18.89;63.55;100835.81;4982761;28;20044;-62
2022/06/08 04:38:10;;;;;;;4.18;2.55;;;;;;;18.88;63.20;100834.06;4979439;28;20049;-63
2022/06/08 04:40:36;;;;;;;4.40;2.50;;;;;;;19.05;63.02;100840.72;4983327;28;20060;-63
2022/06/08 04:43:02;;;;;;;4.28;2.42;;;;;;;19.15;62.50;100840.53;4985557;28;20045;-63
2022/06/08 04:45:28;;;;;;;5.35;2.42;;;;;;;19.13;63.11;100842.34;4978874;28;20034;-64
2022/06/08 04:47:53;;;;;;;4.97;2.65;;;;;;;19.20;62.89;100836.88;4973132;28;20049;-63
2022/06/08 04:50:19;;;;;;;3.58;2.30;;;;;;;19.22;62.81;100842.09;4980618;28;20136;-63
2022/06/08 04:52:45;;;;;;;4.65;2.40;;;;;;;19.29;62.53;100831.38;4982605;28;20053;-64
2022/06/08 04:55:12;;;;;;;4.85;2.60;;;;;;;19.08;62.45;100831.88;4986432;28;20529;-63
2022/06/08 04:57:43;;;;;;;4.15;2.50;;;;;;;19.12;62.76;100827.38;4973983;28;20045;-62
2022/06/08 05:00:14;;;;;;;6.15;2.70;;;;;;;19.05;62.93;100824.00;4986654;28;20057;-63
2022/06/08 05:02:48;;;;;;;4.20;2.65;;;;;;;19.17;62.33;100818.44;4982828;28;20049;-64
2022/06/08 05:05:30;;;;;;;4.78;2.35;;;;;;;19.35;62.26;100819.78;4975838;28;20242;-62
2022/06/08 05:07:56;;;;;;;5.28;2.42;;;;;;;19.54;62.35;100814.97;4971753;28;20562;-63
2022/06/08 05:10:24;;;;;;;5.00;2.60;;;;;;;19.51;61.45;100818.56;4980747;28;20056;-63
2022/06/08 05:12:50;;;;;;;6.18;2.25;;;;;;;19.74;61.21;100812.69;4974189;28;20050;-63
2022/06/08 05:15:19;;;;;;;6.43;2.35;;;;;;;19.94;60.22;100813.06;4982593;28;20104;-63
2022/06/08 05:17:45;;;;;;;6.00;2.45;;;;;;;20.04;60.71;100808.41;4969710;28;20092;-64
2022/06/08 05:20:11;;;;;;;4.65;2.47;;;;;;;20.13;59.78;100814.28;4981403;28;20045;-62
2022/06/08 05:22:37;;;;;;;4.82;2.47;;;;;;;20.21;59.51;100814.97;4978829;28;20048;-62
2022/06/08 05:25:05;;;;;;;3.88;2.65;;;;;;;20.03;60.12;100802.22;4987708;28;20041;-62
2022/06/08 05:27:30;;;;;;;8.13;3.00;;;;;;;19.82;59.98;100802.81;4975393;28;20327;-62
2022/06/08 05:29:56;;;;;;;4.97;2.95;;;;;;;19.88;60.49;100805.28;4966289;28;20061;-63
2022/06/08 05:32:22;;;;;;;6.75;3.35;;;;;;;19.85;60.73;100795.66;4984135;28;20048;-62
2022/06/08 05:34:47;;;;;;;6.00;3.15;;;;;;;19.93;61.28;100798.09;4984013;28;20224;-63
2022/06/08 05:37:13;;;;;;;5.78;3.00;;;;;;;19.98;61.60;100797.97;4972180;28;20029;-63
2022/06/08 05:39:42;;;;;;;7.40;3.78;;;;;;;19.87;60.87;100800.03;4975382;28;20049;-62
2022/06/08 05:42:08;;;;;;;8.05;3.80;;;;;;;19.89;61.89;100795.56;4979808;28;20052;-63
2022/06/08 05:44:35;;;;;;;7.72;4.20;;;;;;;19.79;61.41;100792.28;4977905;28;20540;-62
2022/06/08 05:47:02;;;;;;;8.15;4.00;;;;;;;20.00;61.49;100786.44;4974624;28;20403;-63
2022/06/08 05:49:28;;;;;;;6.10;3.92;;;;;;;20.02;60.77;100789.91;4985293;28;20447;-63
2022/06/08 05:51:54;;;;;;;5.60;3.80;;;;;;;20.18;61.45;100777.13;4965038;28;20044;-63
2022/06/08 05:54:19;;;;;;;7.03;4.00;;;;;;;20.00;60.24;100777.63;4971773;28;20320;-63
2022/06/08 05:56:45;;;;;;;8.48;4.18;;;;;;;20.20;59.95;100776.16;4979461;28;20673;-63
2022/06/08 05:59:11;;;;;;;9.07;4.30;;;;;;;20.36;59.96;100778.44;4977296;28;20497;-65
2022/06/08 06:01:39;;;;;;;7.95;4.15;;;;;;;20.34;60.94;100767.00;4977913;28;20045;-62
2022/06/08 06:04:07;;;;;;;7.18;3.90;;;;;;;20.25;61.14;100760.16;4985615;28;20429;-64
2022/06/08 06:06:33;;;;;;;6.63;4.00;;;;;;;20.03;61.07;100761.66;4979413;28;20029;-62
2022/06/08 06:08:59;;;;;;;7.18;3.70;;;;;;;20.11;61.97;100755.25;4987438;28;20386;-62
2022/06/08 06:11:25;;;;;;;6.35;3.67;;;;;;;19.90;62.04;100753.19;4985734;28;20099;-63
2022/06/08 06:13:50;;;;;;;7.28;4.30;;;;;;;19.75;62.58;100746.53;4981389;28;20051;-63
2022/06/08 06:16:16;;;;;;;6.50;3.72;;;;;;;19.88;62.19;100746.22;4981347;28;20045;-64
2022/06/08 06:18:41;;;;;;;7.07;3.67;;;;;;;20.04;61.38;100744.88;4986010;28;20160;-63
2022/06/08 06:21:06;;;;;;;6.95;3.50;;;;;;;20.10;61.13;100731.47;4981277;28;20132;-64
2022/06/08 06:23:33;;;;;;;5.57;3.40;;;;;;;20.20;60.82;100736.47;4985752;28;20488;-62
2022/06/08 06:25:58;;;;;;;6.70;3.35;;;;;;;20.70;60.06;100735.94;4969052;28;20169;-62
2022/06/08 06:28:24;;;;;;;5.65;3.65;;;;;;;20.42;60.05;100730.59;4993288;28;20459;-65
2022/06/08 06:30:49;;;;;;;8.05;3.50;;;;;;;20.61;59.61;100735.28;4985577;28;20056;-63
2022/06/08 06:33:15;;;;;;;6.57;3.50;;;;;;;20.51;59.71;100736.47;4988010;28;20606;-63
2022/06/08 06:35:42;;;;;;;5.45;3.00;;;;;;;20.80;58.91;100740.06;4974728;28;20405;-62
2022/06/08 06:38:08;;;;;;;5.85;3.08;;;;;;;20.71;58.74;100738.53;4979978;28;20051;-62
2022/06/08 06:40:34;;;;;;;6.15;3.03;;;;;;;20.64;58.63;100742.28;4989796;28;20110;-64
2022/06/08 06:43:00;;;;;;;5.28;2.90;;;;;;;21.07;57.85;100741.81;4983885;28;20098;-63
2022/06/08 06:45:26;;;;;;;5.53;2.88;;;;;;;20.92;59.01;100745.81;4981390;28;20128;-64
2022/06/08 06:47:52;;;;;;;5.07;3.10;;;;;;;20.88;59.33;100741.53;4968480;28;20052;-64
2022/06/08 06:50:17;;;;;;;5.90;2.78;;;;;;;20.92;58.40;100737.03;4990444;28;20402;-64
2022/06/08 06:52:47;;;;;;;6.97;2.70;;;;;;;21.05;57.81;100735.69;4983196;28;20041;-63
2022/06/08 06:55:24;;;;;;;7.90;2.80;;;;;;;21.25;57.20;100737.75;4986051;28;20030;-62
2022/06/08 06:57:49;;;;;;;4.72;3.03;;;;;;;21.42;56.39;100736.28;4971886;28;20122;-62
2022/06/08 07:00:16;;;;;;;5.93;3.03;;;;;;;21.76;55.66;100732.47;4986763;28;20520;-63
2022/06/08 07:02:42;;;;;;;6.20;3.50;;;;;;;21.77;56.28;100728.91;4991024;28;20424;-63
2022/06/08 07:05:14;;;;;;;8.50;4.70;;;;;;;20.99;56.96;100720.84;4984945;28;20357;-62
2022/06/08 07:07:40;;;;;;;8.60;5.05;;;;;;;20.77;57.94;100716.28;4975166;28;20042;-63
2022/06/08 07:10:05;;;;;;;10.70;4.90;;;;;;;20.42;58.75;100714.72;4978270;28;21182;-63
2022/06/08 07:12:31;;;;;;;9.02;5.05;;;;;;;21.21;57.56;100718.44;5014913;28;20104;-63
2022/06/08 07:14:56;;;;;;;9.00;5.07;;;;;;;21.57;56.32;100720.75;4980936;28;20607;-63
2022/06/08 07:17:21;;;;;;;13.30;5.78;;;;;;;21.90;55.39;100716.03;4981751;28;20489;-64
2022/06/08 07:19:47;;;;;;;8.02;5.40;;;;;;;21.57;56.32;100715.47;4966951;28;20057;-64
2022/06/08 07:22:12;;;;;;;11.52;5.20;;;;;;;22.06;55.96;100712.84;4983219;28;20034;-63
2022/06/08 07:24:38;;;;;;;7.88;5.07;;;;;;;22.05;55.13;100703.13;4981488;28;20092;-63
2022/06/08 07:27:05;;;;;;;8.77;5.28;;;;;;;22.22;55.87;100702.50;4979484;28;20041;-62
2022/06/08 07:29:31;;;;;;;7.68;4.57;;;;;;;22.38;55.48;100700.16;4979255;28;20057;-63
2022/06/08 07:31:58;;;;;;;8.02;4.63;;;;;;;23.46;53.14;100694.03;4974449;28;20470;-64
2022/06/08 07:34:23;;;;;;;9.20;4.82;;;;;;;23.53;52.70;100690.22;4997627;28;20041;-62
2022/06/08 07:36:49;;;;;;;9.07;4.80;;;;;;;23.84;51.64;100692.41;4997173;28;20204;-63
2022/06/08 07:39:15;;;;;;;10.88;5.10;;;;;;;24.05;50.48;100691.44;4980471;28;20696;-62
2022/06/08 07:41:45;;;;;;;9.55;4.78;;;;;;;24.43;49.61;100688.84;4948516;28;20060;-63
2022/06/08 07:44:10;;;;;;;10.07;4.43;;;;;;;24.98;48.37;100687.09;4983409;28;20041;-66
2022/06/08 07:46:36;;;;;;;8.73;4.40;;;;;;;24.69;49.93;100695.63;4980437;28;20566;-63
2022/06/08 07:51:52;;;;;;;14.60;5.40;;;;;;;24.25;51.09;100686.09;4975308;28;21645;-63
2022/06/08 07:54:18;;;;;;;8.10;5.13;;;;;;;24.12;50.88;100695.56;4977585;28;20057;-64
2022/06/08 07:56:43;;;;;;;9.90;5.50;;;;;;;24.19;50.65;100697.03;5008589;28;20294;-64
2022/06/08 07:59:09;;;;;;;9.75;5.50;;;;;;;23.57;52.25;100696.25;4977320;28;20638;-63
2022/06/08 08:01:34;;;;;;;11.88;5.82;;;;;;;23.01;53.27;100700.31;4969013;28;20492;-64
2022/06/08 08:04:01;;;;;;;11.95;5.93;;;;;;;22.50;54.47;100697.03;4985726;28;20029;-63
2022/06/08 08:06:26;;;;;;;11.88;6.40;;;;;;;22.25;55.12;100700.63;4982829;28;20042;-63
2022/06/08 08:08:52;;;;;;;10.18;5.95;;;;;;;22.58;54.38;100695.81;4972303;28;21756;-64
2022/06/08 08:11:17;;;;;;;10.85;6.10;;;;;;;23.27;54.20;100693.06;4986636;28;20590;-63
2022/06/08 08:13:42;;;;;;;9.38;6.18;;;;;;;23.62;53.30;100695.13;4971548;28;20249;-64
2022/06/08 08:16:08;;;;;;;8.85;5.65;;;;;;;24.02;52.05;100688.91;4974460;28;20473;-65
2022/06/08 08:18:33;;;;;;;11.30;6.20;;;;;;;24.19;50.28;100690.84;4980157;28;20037;-63
2022/06/08 08:20:59;;;;;;;9.75;5.90;;;;;;;24.78;49.37;100688.03;4975925;28;20576;-63
2022/06/08 08:23:24;;;;;;;8.88;6.15;;;;;;;25.27;50.97;100682.97;4973477;28;20572;-62
2022/06/08 08:25:51;;;;;;;10.50;6.43;;;;;;;25.46;48.28;100692.66;4991406;28;20640;-63
2022/06/08 08:28:17;;;;;;;9.48;6.13;;;;;;;25.85;47.25;100684.44;4985096;28;20034;-65
2022/06/08 08:30:43;;;;;;;9.07;6.20;;;;;;;25.73;47.12;100687.75;4974897;28;20041;-63
2022/06/08 08:33:08;;;;;;;11.52;7.53;;;;;;;25.79;47.07;100683.88;4978520;28;20331;-64
2022/06/08 08:35:34;;;;;;;11.73;8.10;;;;;;;25.51;47.42;100683.53;4972591;28;20044;-64
2022/06/08 08:38:00;;;;;;;11.20;8.20;;;;;;;25.20;48.73;100678.88;4971650;28;20921;-63
2022/06/08 08:40:44;;;;;;;12.43;7.55;;;;;;;24.85;48.75;100681.47;4981901;28;20391;-65
2022/06/08 08:43:13;;;;;;;10.55;7.43;;;;;;;25.04;49.31;100676.13;4977820;28;20216;-65
2022/06/08 08:46:02;;;;;;;10.40;7.03;;;;;;;25.11;48.41;100682.03;4966765;28;20060;-64
2022/06/08 08:48:37;;;;;;;11.02;6.65;;;;;;;24.80;50.01;100670.16;4975841;28;20078;-64
2022/06/08 08:51:25;;;;;;;8.85;5.75;;;;;;;24.60;49.41;100681.78;4980920;28;20045;-63
2022/06/08 08:54:03;;;;;;;11.48;6.13;;;;;;;23.73;51.46;100687.53;4973545;28;20038;-64
2022/06/08 08:56:36;;;;;;;9.20;5.60;;;;;;;24.12;50.59;100676.91;4976684;28;20412;-64
2022/06/08 08:59:04;;;;;;;10.95;6.13;;;;;;;23.88;51.47;100677.13;4974910;28;20049;-64
2022/06/08 09:01:33;;;;;;;13.60;5.82;;;;;;;23.59;52.76;100678.44;4963762;28;20053;-64
2022/06/08 09:04:13;;;;;;;12.52;7.15;;;;;;;23.37;53.65;100670.44;4983222;28;20057;-65
2022/06/08 09:06:40;;;;;;;12.02;7.78;;;;;;;23.03;54.86;100684.31;4981926;28;20152;-64
2022/06/08 09:09:12;;;;;;;11.20;7.60;;;;;;;22.45;55.92;100680.38;4982269;28;20364;-63
2022/06/08 09:11:40;;;;;;;15.55;7.22;;;;;;;22.58;57.77;100682.50;4971155;28;20041;-63
2022/06/08 09:14:13;;;;;;;10.98;6.80;;;;;;;22.66;57.84;100679.56;4975862;28;20099;-64
2022/06/08 09:16:47;;;;;;;14.20;7.80;;;;;;;22.36;59.70;100678.09;4987772;28;20376;-64
2022/06/08 09:19:29;;;;;;;12.98;7.72;;;;;;;22.21;61.03;100692.81;4980880;28;20325;-63
2022/06/08 09:22:21;;;;;;;11.57;6.95;;;;;;;21.57;62.31;100695.09;4976615;28;20504;-63
2022/06/08 09:24:49;;;;;;;8.88;6.45;;;;;;;21.68;62.05;100698.25;4972039;28;20049;-63
2022/06/08 09:27:24;;;;;;;10.43;6.30;;;;;;;21.46;61.83;100702.56;4974327;28;20570;-63
2022/06/08 09:29:58;;;;;;;9.20;6.47;;;;;;;21.24;63.64;100697.09;4989862;28;20353;-64
2022/06/08 09:32:28;;;;;;;12.13;6.53;;;;;;;21.05;62.89;100695.94;4979406;28;20620;-63
2022/06/08 09:34:57;;;;;;;11.27;6.55;;;;;;;20.97;64.20;100693.56;4977851;28;20137;-62
2022/06/08 09:37:24;;;;;;;9.55;6.57;;;;;;;20.88;65.00;100695.63;4977079;28;20038;-63
2022/06/08 09:39:52;;;;;;;13.02;7.00;;;;;;;20.81;64.54;100694.06;4983946;28;20584;-64
2022/06/08 09:42:48;;;;;;;10.68;6.93;;;;;;;20.66;64.60;100698.09;4986572;28;20044;-63
2022/06/08 09:45:53;;;;;;;9.95;6.93;;;;;;;20.82;65.92;100701.09;4977921;28;20429;-63
2022/06/08 09:51:28;;;;;;;8.95;6.72;;;;;;;20.80;66.35;100695.00;4976349;28;20119;-63
2022/06/08 09:54:14;;;;;;;11.48;6.50;;;;;;;20.82;66.63;100699.31;4977592;28;20040;-62
2022/06/08 09:56:48;;;;;;;8.13;5.20;;;;;;;20.68;66.42;100690.94;4978267;28;20052;-64
2022/06/08 09:59:32;;;;;;;8.70;5.22;;;;;;;20.75;66.11;100694.25;4982671;28;20208;-63
2022/06/08 10:02:08;;;;;;;11.77;5.38;;;;;;;20.76;65.48;100696.88;4983719;28;20576;-62
2022/06/08 10:04:55;;;;;;;7.00;5.00;;;;;;;20.76;65.75;100696.00;4987218;28;20041;-64
2022/06/08 10:07:54;;;;;;;9.10;4.50;;;;;;;20.47;66.34;100688.94;4984869;28;20334;-63
2022/06/08 10:10:42;;;;;;;12.70;4.78;;;;;;;20.42;65.77;100704.13;4983541;28;20081;-63
2022/06/08 10:13:18;;;;;;;8.02;3.72;;;;;;;20.32;65.88;100695.56;4986705;28;20050;-62
2022/06/08 10:15:51;;;;;;;9.80;4.13;;;;;;;20.15;66.91;100703.09;4972701;28;20037;-63
2022/06/08 10:18:27;;;;;;;10.73;3.50;;;;;;;20.20;66.29;100702.03;4975442;28;20050;-62
2022/06/08 10:20:59;;;;;;;7.20;2.75;;;;;;;20.09;65.35;100696.19;4973773;28;20049;-64
2022/06/08 10:23:41;;;;;;;9.98;2.83;;;;;;;20.24;65.51;100705.50;4973743;28;20065;-62
2022/06/08 10:26:18;;;;;;;7.70;2.60;;;;;;;19.81;65.71;100703.19;4983069;28;20041;-62
2022/06/08 10:28:59;;;;;;;6.97;2.50;;;;;;;19.83;65.22;100709.28;4982958;28;20073;-63
2022/06/08 10:31:36;;;;;;;7.88;2.97;;;;;;;19.88;66.18;100709.19;4974482;28;20242;-62
2022/06/08 10:34:17;;;;;;;5.10;2.28;;;;;;;20.02;65.41;100705.22;4977576;28;20052;-63
2022/06/08 10:36:46;;;;;;;7.20;2.10;;;;;;;19.77;64.79;100712.09;4979117;28;20083;-62
2022/06/08 10:39:12;;;;;;;5.45;2.00;;;;;;;19.92;65.78;100716.09;4974158;28;20548;-64
2022/06/08 10:44:44;;;;;;;5.30;2.20;;;;;;;19.25;67.93;100715.19;4982749;28;20096;-64
2022/06/08 10:47:12;;;;;;;8.57;2.35;;;;;;;19.15;67.99;100709.25;4979632;28;20438;-62
2022/06/08 10:49:37;;;;;;;5.80;2.53;;;;;;;19.37;68.07;100718.41;4963705;28;20079;-63
2022/06/08 10:52:14;;;;;;;6.68;2.08;;;;;;;19.54;67.62;100711.84;4985635;28;20033;-63
2022/06/08 10:54:54;;;;;;;6.97;2.03;;;;;;;19.24;67.34;100711.66;4981911;28;20057;-63
2022/06/08 10:57:42;;;;;;;5.60;2.20;;;;;;;19.34;66.87;100710.53;4985443;28;20049;-63
2022/06/08 11:00:19;;;;;;;6.53;1.80;;;;;;;19.14;67.00;100710.16;5014132;28;20413;-63
2022/06/08 11:03:03;;;;;;;6.78;2.10;;;;;;;19.33;67.03;100708.78;4985761;28;20124;-63
2022/06/08 11:05:35;;;;;;;6.05;1.98;;;;;;;19.34;66.24;100707.00;4964486;28;20480;-65
2022/06/08 11:08:00;;;;;;;9.38;2.03;;;;;;;19.54;65.08;100712.69;4978723;28;20056;-63
2022/06/08 11:10:44;;;;;;;5.10;1.80;;;;;;;19.52;65.98;100711.88;4985939;28;20049;-64
2022/06/08 11:13:30;;;;;;;6.45;2.10;;;;;;;19.20;66.59;100709.16;4986138;28;20586;-63
2022/06/08 11:16:13;;;;;;;5.32;2.10;;;;;;;19.09;67.76;100708.56;4980282;28;20037;-63
2022/06/08 11:18:44;;;;;;;6.80;2.60;;;;;;;18.89;68.28;100706.38;4983357;28;20041;-63
2022/06/08 11:21:13;;;;;;;8.30;2.20;;;;;;;19.17;69.17;100691.59;4974841;28;20532;-61
2022/06/08 11:23:44;;;;;;;6.13;2.38;;;;;;;18.91;69.10;100688.69;4977090;28;20037;-63
2022/06/08 11:26:44;;;;;;;6.68;2.30;;;;;;;18.91;70.40;100691.34;4984383;28;20334;-62
2022/06/08 11:29:18;;;;;;;5.85;2.28;;;;;;;19.14;69.25;100686.38;4982080;28;20049;-62
2022/06/08 11:31:43;;;;;;;5.20;2.42;;;;;;;19.40;68.59;100697.16;4978251;28;20948;-62
2022/06/08 11:34:21;;;;;;;6.60;2.50;;;;;;;19.66;68.62;100688.56;4979807;28;20320;-63
2022/06/08 11:37:17;;;;;;;5.40;2.47;;;;;;;19.70;67.93;100684.94;4981066;28;20969;-62
2022/06/08 11:39:56;;;;;;;4.60;2.58;;;;;;;19.83;67.98;100681.03;4973131;28;20961;-63
2022/06/08 11:42:32;;;;;;;4.57;2.45;;;;;;;19.89;67.99;100673.84;4985721;28;20511;-63
2022/06/08 11:45:16;;;;;;;3.58;2.10;;;;;;;19.58;67.08;100674.69;4982114;28;20732;-63
2022/06/08 11:48:04;;;;;;;3.85;2.45;;;;;;;19.64;67.29;100676.31;4970203;28;20949;-63
2022/06/08 11:50:43;;;;;;;6.00;2.50;;;;;;;19.65;67.87;100670.97;4979647;28;20056;-62
2022/06/08 11:53:35;;;;;;;5.75;2.30;;;;;;;19.30;68.17;100668.34;4980070;28;20228;-65